createdAt,value
2022-10-28T00:00:00.290Z,4.15
2022-10-28T00:01:32.797Z,4.40
2022-10-28T00:03:04.909Z,3.93
2022-10-28T00:04:36.962Z,4.18
2022-10-28T00:06:14.578Z,4.70
2022-10-28T00:07:46.704Z,4.10
2022-10-28T00:09:18.667Z,3.90
2022-10-28T00:10:50.630Z,3.90
2022-10-28T00:12:22.587Z,3.60
2022-10-28T00:14:01.590Z,4.45
2022-10-28T00:15:35.741Z,3.90
2022-10-28T00:17:07.665Z,4.25
2022-10-28T00:18:39.999Z,3.95
2022-10-28T00:20:12.216Z,4.35
2022-10-28T00:21:44.827Z,4.25
2022-10-28T00:23:16.805Z,4.33
2022-10-28T02:18:01.846Z,3.35
2022-10-28T02:19:49.474Z,3.80
2022-10-28T02:21:34.076Z,3.97
2022-10-28T02:23:15.957Z,3.55
2022-10-28T02:24:54.024Z,4.03
2022-10-28T02:26:38.590Z,3.78
2022-10-28T02:28:14.776Z,3.67
2022-10-28T02:30:03.108Z,4.25
2022-10-28T02:31:39.140Z,4.57
2022-10-28T02:33:13.566Z,4.18
2022-10-28T02:34:48.012Z,3.78
2022-10-28T02:36:22.470Z,4.10
2022-10-28T02:37:55.397Z,4.07
2022-10-28T02:39:31.832Z,3.90
2022-10-28T02:41:08.861Z,4.75
2022-10-28T02:42:46.948Z,3.90
2022-10-28T02:44:24.546Z,4.25
2022-10-28T02:45:59.990Z,3.50
2022-10-28T02:47:34.738Z,4.43
2022-10-28T02:49:12.437Z,4.13
2022-10-28T02:50:47.537Z,4.25
2022-10-28T02:52:21.275Z,4.38
2022-10-28T02:54:33.465Z,4.15
2022-10-28T02:56:07.048Z,3.83
2022-10-28T02:57:42.695Z,3.80
2022-10-28T02:59:14.682Z,3.80
2022-10-28T03:00:47.290Z,3.90
2022-10-28T03:02:19.339Z,3.72
2022-10-28T03:03:51.453Z,4.03
2022-10-28T03:05:23.463Z,3.70
2022-10-28T03:06:55.504Z,4.15
2022-10-28T03:08:27.502Z,3.97
2022-10-28T03:09:59.441Z,4.38
2022-10-28T03:11:31.460Z,4.30
2022-10-28T03:13:03.488Z,4.55
2022-10-28T03:14:36.314Z,4.60
2022-10-28T03:16:08.363Z,4.45
2022-10-28T03:17:40.968Z,4.75
2022-10-28T03:19:12.935Z,4.37
2022-10-28T03:22:16.783Z,4.45
2022-10-28T03:23:48.820Z,4.97
2022-10-28T03:25:20.851Z,4.45
2022-10-28T03:26:52.989Z,4.57
2022-10-28T03:28:24.992Z,4.38
2022-10-28T03:29:57.084Z,4.22
2022-10-28T03:31:29.269Z,4.88
2022-10-28T03:33:01.316Z,3.47
2022-10-28T03:34:33.320Z,4.05
2022-10-28T03:36:05.496Z,4.30
2022-10-28T03:37:40.218Z,4.07
2022-10-28T03:39:12.217Z,4.28
2022-10-28T03:40:44.202Z,4.47
2022-10-28T03:42:16.187Z,3.92
2022-10-28T03:43:48.146Z,3.70
2022-10-28T03:45:20.251Z,4.13
2022-10-28T03:46:52.337Z,4.15
2022-10-28T03:48:24.346Z,4.28
2022-10-28T03:51:28.208Z,3.80
2022-10-28T03:53:00.472Z,4.38
2022-10-28T03:54:32.517Z,4.25
2022-10-28T03:56:05.314Z,4.05
2022-10-28T03:57:37.455Z,4.47
2022-10-28T03:59:10.346Z,4.40
2022-10-28T04:00:42.595Z,3.80
2022-10-28T04:02:15.992Z,3.97
2022-10-28T04:05:20.813Z,3.83
2022-10-28T04:06:52.793Z,3.55
2022-10-28T04:08:24.920Z,3.80
2022-10-28T04:09:56.936Z,3.00
2022-10-28T04:11:28.984Z,3.75
2022-10-28T04:13:02.049Z,3.53
2022-10-28T04:14:34.044Z,3.80
2022-10-28T04:16:06.744Z,3.75
2022-10-28T04:17:38.823Z,3.80
2022-10-28T04:19:10.851Z,3.40
2022-10-28T04:20:42.943Z,3.35
2022-10-28T04:22:15.019Z,3.60
2022-10-28T04:23:47.027Z,3.85
2022-10-28T04:25:19.024Z,3.88
2022-10-28T04:26:51.104Z,3.30
2022-10-28T04:28:26.145Z,3.63
2022-10-28T04:29:58.583Z,3.60
2022-10-28T04:31:30.593Z,3.47
2022-10-28T04:33:02.839Z,3.50
2022-10-28T04:34:37.392Z,3.50
2022-10-28T04:36:11.577Z,3.35
2022-10-28T04:37:43.773Z,3.45
2022-10-28T04:39:15.843Z,3.72
2022-10-28T04:40:49.484Z,3.70
2022-10-28T04:42:21.503Z,3.38
2022-10-28T04:43:55.151Z,3.20
2022-10-28T04:45:27.382Z,3.50
2022-10-28T04:46:59.672Z,3.40
2022-10-28T04:48:34.464Z,3.72
2022-10-28T04:50:06.932Z,3.83
2022-10-28T04:51:39.360Z,3.15
2022-10-28T04:53:12.593Z,3.45
2022-10-28T04:54:45.002Z,3.55
2022-10-28T04:56:16.997Z,3.85
2022-10-28T04:58:00.027Z,3.55
2022-10-28T04:59:32.160Z,3.63
2022-10-28T05:01:08.246Z,3.30
2022-10-28T05:02:45.167Z,3.03
2022-10-28T05:04:18.279Z,3.50
2022-10-28T05:05:50.528Z,3.30
2022-10-28T05:07:23.693Z,3.58
2022-10-28T05:08:56.011Z,3.88
2022-10-28T05:10:28.156Z,4.43
2022-10-28T05:12:00.219Z,3.58
2022-10-28T05:13:32.253Z,4.03
2022-10-28T05:15:04.681Z,3.60
2022-10-28T05:16:36.789Z,3.63
2022-10-28T05:18:08.898Z,4.00
2022-10-28T05:19:40.909Z,3.70
2022-10-28T05:21:12.970Z,3.65
2022-10-28T05:22:54.118Z,4.20
2022-10-28T05:24:26.456Z,3.42
2022-10-28T05:25:58.620Z,3.97
2022-10-28T05:27:30.709Z,3.92
2022-10-28T05:29:02.870Z,3.60
2022-10-28T05:30:34.979Z,3.45
2022-10-28T05:32:07.060Z,4.63
2022-10-28T05:33:39.079Z,3.88
2022-10-28T05:35:11.555Z,4.18
2022-10-28T05:36:43.560Z,3.67
2022-10-28T05:38:16.131Z,3.45
2022-10-28T05:39:48.211Z,3.87
2022-10-28T05:41:21.972Z,3.72
2022-10-28T05:42:55.693Z,4.07
2022-10-28T05:44:28.050Z,3.50
2022-10-28T05:46:04.154Z,3.95
2022-10-28T05:47:39.208Z,3.88
2022-10-28T05:50:49.119Z,3.50
2022-10-28T05:52:21.207Z,3.50
2022-10-28T05:53:53.277Z,3.78
2022-10-28T05:55:28.669Z,4.60
2022-10-28T05:57:00.739Z,4.53
2022-10-28T05:58:33.010Z,5.00
2022-10-28T06:00:06.026Z,4.60
2022-10-28T06:01:38.380Z,4.93
2022-10-28T06:03:12.770Z,5.53
2022-10-28T06:04:45.044Z,4.60
2022-10-28T06:06:17.299Z,5.60
2022-10-28T06:07:49.667Z,4.90
2022-10-28T06:09:24.528Z,5.32
2022-10-28T06:10:55.306Z,4.97
2022-10-28T06:12:27.429Z,5.00
2022-10-28T06:13:59.628Z,4.57
2022-10-28T06:15:32.002Z,5.40
2022-10-28T06:17:04.326Z,5.50
2022-10-28T06:18:36.538Z,4.55
2022-10-28T06:20:09.615Z,5.50
2022-10-28T06:21:41.857Z,5.57
2022-10-28T06:23:13.997Z,5.10
2022-10-28T06:24:46.084Z,5.00
2022-10-28T06:26:18.340Z,4.65
2022-10-28T06:27:55.439Z,5.53
2022-10-28T06:29:27.775Z,5.40
2022-10-28T06:31:10.583Z,5.53
2022-10-28T06:32:42.869Z,4.57
2022-10-28T06:34:15.013Z,4.88
2022-10-28T06:35:50.226Z,4.43
2022-10-28T06:37:22.468Z,4.85
2022-10-28T06:38:54.765Z,4.93
2022-10-28T06:40:28.041Z,4.63
2022-10-28T06:42:00.382Z,4.68
2022-10-28T06:43:32.611Z,4.43
2022-10-28T06:45:05.787Z,4.53
2022-10-28T06:46:39.596Z,5.07
2022-10-28T06:48:12.152Z,4.82
2022-10-28T06:49:44.455Z,11.33
2022-10-28T06:51:17.652Z,9.68
2022-10-28T06:52:49.916Z,6.03
2022-10-28T06:54:24.416Z,5.63
2022-10-28T06:55:58.025Z,6.00
2022-10-28T06:57:30.066Z,6.05
2022-10-28T06:59:02.485Z,5.63
2022-10-28T07:00:35.175Z,5.15
2022-10-28T07:02:07.340Z,4.88
2022-10-28T07:03:39.684Z,5.55
2022-10-28T07:05:11.843Z,4.85
2022-10-28T07:06:46.352Z,4.93
2022-10-28T07:08:20.935Z,5.00
2022-10-28T07:09:53.193Z,4.68
2022-10-28T07:11:25.806Z,4.70
2022-10-28T07:12:58.240Z,4.70
2022-10-28T07:14:30.784Z,4.77
2022-10-28T07:16:03.101Z,4.32
2022-10-28T07:17:35.340Z,4.93
2022-10-28T07:19:07.473Z,4.78
2022-10-28T07:20:39.736Z,4.95
2022-10-28T07:22:12.386Z,4.65
2022-10-28T07:23:46.714Z,4.57
2022-10-28T07:25:18.880Z,4.60
2022-10-28T07:26:53.105Z,4.70
2022-10-28T07:28:28.327Z,3.97
2022-10-28T07:30:00.570Z,4.28
2022-10-28T07:31:32.852Z,4.70
2022-10-28T07:33:06.469Z,4.65
2022-10-28T07:34:39.920Z,4.55
2022-10-28T07:37:44.561Z,4.47
2022-10-28T07:39:17.314Z,4.60
2022-10-28T07:40:49.610Z,5.15
2022-10-28T07:42:21.941Z,4.30
2022-10-28T07:43:54.380Z,4.70
2022-10-28T07:45:26.649Z,4.65
2022-10-28T07:46:58.742Z,4.75
2022-10-28T07:48:30.992Z,5.28
2022-10-28T07:50:03.710Z,5.47
2022-10-28T07:51:36.049Z,4.85
2022-10-28T07:53:08.362Z,4.90
2022-10-28T07:54:40.606Z,5.10
2022-10-28T07:56:14.221Z,5.45
2022-10-28T07:57:46.299Z,4.60
2022-10-28T07:59:26.522Z,4.40
2022-10-28T08:01:06.315Z,4.80
2022-10-28T08:02:39.065Z,4.03
2022-10-28T08:04:11.354Z,5.10
2022-10-28T08:05:43.488Z,4.75
2022-10-28T08:07:16.717Z,4.70
2022-10-28T08:08:50.156Z,5.43
2022-10-28T08:11:56.682Z,5.13
2022-10-28T08:13:29.242Z,4.38
2022-10-28T08:15:03.269Z,4.50
2022-10-28T08:16:38.405Z,4.22
2022-10-28T08:18:10.706Z,4.47
2022-10-28T08:19:43.108Z,4.80
2022-10-28T08:21:16.208Z,5.40
2022-10-28T08:22:48.508Z,4.30
2022-10-28T08:24:20.869Z,4.72
2022-10-28T08:25:53.914Z,4.20
2022-10-28T08:27:26.141Z,4.28
2022-10-28T08:28:58.659Z,4.70
2022-10-28T08:30:40.421Z,4.35
2022-10-28T08:32:23.031Z,4.55
2022-10-28T08:33:55.258Z,3.90
2022-10-28T08:35:27.433Z,4.07
2022-10-28T08:36:59.762Z,4.95
2022-10-28T08:38:32.056Z,4.38
2022-10-28T08:40:04.719Z,4.40
2022-10-28T08:41:48.639Z,4.53
2022-10-28T08:45:32.651Z,4.07
2022-10-28T08:47:31.893Z,3.75
2022-10-28T08:49:13.725Z,3.83
2022-10-28T08:50:56.844Z,3.95
2022-10-28T08:52:35.062Z,4.25
2022-10-28T08:54:14.050Z,3.83
2022-10-28T08:55:48.405Z,3.90
2022-10-28T08:57:43.814Z,3.80
2022-10-28T08:59:26.017Z,3.97
2022-10-28T09:01:02.511Z,3.25
2022-10-28T09:02:57.303Z,3.70
2022-10-28T09:04:41.942Z,3.20
2022-10-28T09:06:14.256Z,3.40
2022-10-28T09:07:46.598Z,3.40
2022-10-28T09:09:24.982Z,2.95
2022-10-28T09:11:19.379Z,2.95
2022-10-28T09:13:07.500Z,2.67
2022-10-28T09:15:14.450Z,3.10
2022-10-28T09:17:09.015Z,3.20
2022-10-28T09:18:58.320Z,3.30
2022-10-28T09:20:54.712Z,3.20
2022-10-28T09:22:45.769Z,3.10
2022-10-28T09:24:24.638Z,3.00
2022-10-28T09:26:07.790Z,3.10
2022-10-28T09:28:07.144Z,3.03
2022-10-28T09:29:44.830Z,3.00
2022-10-28T09:31:37.166Z,2.92
2022-10-28T09:33:37.150Z,3.10
2022-10-28T09:35:14.187Z,2.50
2022-10-28T09:36:58.531Z,3.15
2022-10-28T09:38:35.963Z,2.60
2022-10-28T09:40:26.234Z,2.75
2022-10-28T09:42:01.314Z,2.65
2022-10-28T09:43:39.699Z,2.90
2022-10-28T09:45:23.638Z,3.17
2022-10-28T09:48:37.516Z,3.03
2022-10-28T09:50:20.050Z,2.83
2022-10-28T09:52:05.018Z,3.10
2022-10-28T09:53:44.354Z,3.22
2022-10-28T09:55:21.188Z,3.28
2022-10-28T09:56:53.523Z,2.95
2022-10-28T09:58:26.081Z,2.92
2022-10-28T09:59:59.752Z,2.80
2022-10-28T10:01:34.932Z,2.85
2022-10-28T10:03:07.307Z,2.85
2022-10-28T10:04:39.600Z,3.53
2022-10-28T10:06:20.108Z,2.90
2022-10-28T10:07:59.428Z,2.58
2022-10-28T10:09:34.076Z,2.85
2022-10-28T10:11:12.493Z,3.08
2022-10-28T10:12:46.416Z,2.75
2022-10-28T10:14:35.161Z,2.92
2022-10-28T10:16:27.697Z,2.90
2022-10-28T10:18:01.500Z,2.70
2022-10-28T10:19:59.297Z,2.67
2022-10-28T10:21:50.511Z,2.60
2022-10-28T10:23:31.704Z,6.50
2022-10-28T10:25:19.152Z,2.90
2022-10-28T10:26:55.396Z,2.80
2022-10-28T10:28:28.192Z,2.60
2022-10-28T10:30:00.796Z,2.60
2022-10-28T10:31:33.004Z,2.70
2022-10-28T10:33:06.686Z,2.67
2022-10-28T10:34:39.409Z,2.60
2022-10-28T10:36:11.793Z,3.03
2022-10-28T10:37:46.892Z,2.40
2022-10-28T10:39:26.677Z,2.90
2022-10-28T10:40:59.013Z,2.42
2022-10-28T10:42:31.153Z,2.60
2022-10-28T10:44:23.615Z,2.60
2022-10-28T10:46:16.867Z,2.95
2022-10-28T10:47:49.315Z,2.70
2022-10-28T10:49:21.583Z,2.90
2022-10-28T10:50:55.341Z,4.93
2022-10-28T10:52:28.870Z,2.45
2022-10-28T10:54:01.390Z,3.67
2022-10-28T10:55:39.386Z,2.80
2022-10-28T10:57:17.438Z,2.50
2022-10-28T10:58:52.119Z,2.40
2022-10-28T11:00:26.018Z,2.80
2022-10-28T11:01:59.233Z,2.50
2022-10-28T11:05:10.673Z,2.25
2022-10-28T11:06:44.807Z,2.40
2022-10-28T11:08:38.817Z,2.45
2022-10-28T11:10:23.095Z,2.50
2022-10-28T11:11:58.469Z,2.60
2022-10-28T11:13:31.607Z,2.80
2022-10-28T11:15:28.676Z,2.50
2022-10-28T11:17:02.861Z,3.28
2022-10-28T11:18:42.097Z,2.60
2022-10-28T11:20:47.463Z,2.40
2022-10-28T11:22:25.566Z,2.35
2022-10-28T11:24:16.412Z,2.50
2022-10-28T11:25:51.776Z,2.30
2022-10-28T11:27:41.733Z,2.70
2022-10-28T11:29:15.666Z,2.35
2022-10-28T11:30:47.739Z,2.42
2022-10-28T11:32:50.128Z,2.35
2022-10-28T11:35:01.371Z,2.60
2022-10-28T11:36:53.800Z,2.60
2022-10-28T11:38:26.046Z,2.63
2022-10-28T11:40:14.523Z,2.60
2022-10-28T11:41:49.936Z,2.40
2022-10-28T11:43:37.210Z,2.55
2022-10-28T11:45:14.969Z,2.22
2022-10-28T11:47:17.216Z,2.70
2022-10-28T11:49:09.780Z,2.50
2022-10-28T11:50:44.677Z,2.72
2022-10-28T11:52:31.786Z,2.67
2022-10-28T11:54:26.297Z,2.83
2022-10-28T11:56:13.341Z,2.65
2022-10-28T11:57:52.580Z,2.88
2022-10-28T11:59:56.439Z,2.50
2022-10-28T12:01:42.283Z,4.55
2022-10-28T12:03:14.814Z,3.83
2022-10-28T12:05:33.873Z,4.13
2022-10-28T12:07:28.786Z,5.53
2022-10-28T12:09:25.764Z,6.10
2022-10-28T12:12:51.413Z,5.50
2022-10-28T12:14:35.115Z,4.97
2022-10-28T12:16:13.074Z,5.05
2022-10-28T12:18:12.280Z,5.13
2022-10-28T12:20:12.357Z,5.05
2022-10-28T12:21:51.110Z,4.82
2022-10-28T12:23:24.357Z,5.22
2022-10-28T12:26:38.778Z,4.80
2022-10-28T12:28:27.059Z,5.63
2022-10-28T12:30:16.785Z,5.80
2022-10-28T12:31:56.629Z,7.05
2022-10-28T12:33:38.808Z,5.35
2022-10-28T12:35:15.386Z,4.30
2022-10-28T12:36:51.298Z,3.80
2022-10-28T12:38:39.453Z,4.03
2022-10-28T12:42:19.459Z,5.18
2022-10-28T12:43:59.176Z,4.32
2022-10-28T12:45:33.053Z,5.00
2022-10-28T12:47:28.408Z,4.70
2022-10-28T12:49:25.343Z,3.92
2022-10-28T12:51:07.787Z,3.85
2022-10-28T12:53:02.358Z,4.30
2022-10-28T12:54:53.766Z,4.05
2022-10-28T12:56:41.429Z,4.10
2022-10-28T12:58:32.218Z,3.75
2022-10-28T13:00:16.386Z,3.47
2022-10-28T13:01:50.193Z,3.95
2022-10-28T13:03:22.639Z,3.92
2022-10-28T13:04:55.106Z,3.40
2022-10-28T13:06:41.999Z,3.65
2022-10-28T13:08:27.240Z,3.55
2022-10-28T13:10:46.937Z,3.45
2022-10-28T13:12:53.582Z,3.42
2022-10-28T13:14:34.842Z,3.75
2022-10-28T13:16:10.076Z,3.58
2022-10-28T13:18:24.400Z,3.28
2022-10-28T13:20:21.684Z,3.75
2022-10-28T13:22:22.885Z,4.57
2022-10-28T13:24:19.253Z,4.03
2022-10-28T13:25:51.565Z,4.05
2022-10-28T13:27:24.272Z,3.75
2022-10-28T13:28:58.815Z,4.18
2022-10-28T13:30:35.754Z,4.10
2022-10-28T13:32:30.621Z,4.32
2022-10-28T13:34:05.207Z,4.70
2022-10-28T13:35:37.914Z,4.22
2022-10-28T13:37:19.870Z,4.20
2022-10-28T13:38:58.773Z,3.55
2022-10-28T13:40:31.095Z,3.50
2022-10-28T13:42:16.437Z,3.50
2022-10-28T13:43:51.708Z,3.50
2022-10-28T13:45:46.528Z,3.25
2022-10-28T13:47:31.759Z,3.53
2022-10-28T13:49:25.662Z,4.10
2022-10-28T13:51:09.935Z,3.17
2022-10-28T13:52:44.279Z,2.90
2022-10-28T13:54:51.689Z,2.55
2022-10-28T13:56:46.244Z,2.17
2022-10-28T13:58:23.446Z,2.38
2022-10-28T14:00:04.142Z,2.25
2022-10-28T14:01:36.469Z,2.67
2022-10-28T14:03:20.756Z,2.20
2022-10-28T14:04:58.675Z,2.70
2022-10-28T14:06:32.311Z,2.30
2022-10-28T14:08:18.203Z,2.13
2022-10-28T14:09:52.961Z,2.30
2022-10-28T14:11:28.104Z,2.42
2022-10-28T14:13:19.285Z,2.30
2022-10-28T14:15:00.732Z,2.20
2022-10-28T14:16:39.824Z,2.40
2022-10-28T14:18:41.664Z,2.30
2022-10-28T14:20:29.927Z,2.22
2022-10-28T14:22:11.233Z,2.28
2022-10-28T14:23:43.703Z,2.40
2022-10-28T14:25:40.787Z,2.40
2022-10-28T14:27:16.260Z,2.47
2022-10-28T14:28:52.600Z,2.38
2022-10-28T14:30:25.075Z,2.50
2022-10-28T14:31:57.402Z,2.90
2022-10-28T14:33:29.804Z,2.40
2022-10-28T14:35:13.745Z,2.33
2022-10-28T14:37:17.183Z,2.20
2022-10-28T14:40:53.006Z,2.42
2022-10-28T14:44:51.573Z,2.60
2022-10-28T14:46:32.928Z,2.47
2022-10-28T14:48:10.943Z,2.45
2022-10-28T14:49:49.883Z,2.40
2022-10-28T14:51:46.930Z,2.83
2022-10-28T14:53:31.593Z,2.75
2022-10-28T14:55:06.564Z,3.33
2022-10-28T14:56:40.037Z,3.03
2022-10-28T14:58:15.175Z,2.80
2022-10-28T14:59:48.414Z,3.03
2022-10-28T15:02:54.843Z,3.33
2022-10-28T15:04:27.293Z,3.63
2022-10-28T15:06:03.680Z,4.57
2022-10-28T15:07:38.293Z,4.95
2022-10-28T15:09:25.725Z,5.78
2022-10-28T15:10:58.027Z,5.18
2022-10-28T15:12:30.256Z,4.53
2022-10-28T15:14:23.571Z,5.03
2022-10-28T15:15:59.361Z,5.53
2022-10-28T15:17:43.294Z,4.57
2022-10-28T15:19:22.532Z,4.95
2022-10-28T15:21:11.757Z,5.28
2022-10-28T15:22:45.174Z,6.90
2022-10-28T15:24:17.492Z,5.78
2022-10-28T15:26:12.408Z,5.75
2022-10-28T15:27:46.636Z,4.93
2022-10-28T15:29:19.206Z,5.22
2022-10-28T15:30:51.766Z,6.10
2022-10-28T15:32:23.973Z,5.63
2022-10-28T15:33:58.961Z,5.65
2022-10-28T15:35:31.351Z,6.15
2022-10-28T15:37:03.535Z,6.40
2022-10-28T15:38:38.696Z,5.22
2022-10-28T15:40:17.397Z,4.55
2022-10-28T15:41:52.778Z,7.20
2022-10-28T15:43:27.914Z,5.05
2022-10-28T15:45:00.543Z,4.38
2022-10-28T15:46:34.522Z,4.80
2022-10-28T15:48:14.881Z,5.03
2022-10-28T15:49:58.757Z,7.25
2022-10-28T15:51:31.104Z,9.43
2022-10-28T15:53:12.356Z,6.53
2022-10-28T15:54:58.182Z,5.93
2022-10-28T15:56:30.729Z,5.63
2022-10-28T15:58:23.324Z,6.20
2022-10-28T16:00:21.444Z,6.18
2022-10-28T16:01:59.068Z,6.68
2022-10-28T16:03:40.735Z,8.07
2022-10-28T16:05:40.400Z,6.90
2022-10-28T16:07:12.802Z,7.18
2022-10-28T16:08:45.159Z,6.10
2022-10-28T16:10:17.563Z,5.82
2022-10-28T16:11:57.203Z,8.02
2022-10-28T16:15:14.457Z,6.95
2022-10-28T16:16:46.889Z,6.00
2022-10-28T16:18:19.304Z,6.50
2022-10-28T16:19:52.705Z,6.47
2022-10-28T16:22:58.432Z,5.68
2022-10-28T16:24:30.687Z,5.72
2022-10-28T16:26:03.198Z,5.55
2022-10-28T16:27:35.491Z,4.67
2022-10-28T16:29:07.891Z,4.78
2022-10-28T16:30:40.325Z,4.25
2022-10-28T16:32:13.524Z,4.95
2022-10-28T16:33:46.482Z,4.22
2022-10-28T16:35:23.285Z,5.25
2022-10-28T16:36:55.521Z,4.45
2022-10-28T16:38:27.904Z,4.50
2022-10-28T16:40:00.350Z,4.88
2022-10-28T16:41:32.724Z,3.83
2022-10-28T16:43:04.881Z,4.30
2022-10-28T16:44:37.225Z,4.20
2022-10-28T16:46:10.269Z,4.00
2022-10-28T16:49:14.531Z,8.48
2022-10-28T16:51:01.775Z,4.53
2022-10-28T16:52:34.908Z,22.58
2022-10-28T16:54:08.001Z,28.85
2022-10-28T16:55:41.162Z,15.27
2022-10-28T16:57:14.052Z,6.38
2022-10-28T16:58:48.699Z,5.55
2022-10-28T17:00:21.304Z,5.75
2022-10-28T17:01:53.527Z,5.03
2022-10-28T17:03:25.898Z,4.85
2022-10-28T17:04:59.537Z,4.93
2022-10-28T17:06:31.930Z,4.80
2022-10-28T17:08:08.827Z,4.10
2022-10-28T17:09:42.544Z,4.50
2022-10-28T17:11:15.952Z,4.82
2022-10-28T17:14:20.384Z,4.40
2022-10-28T17:15:56.291Z,4.50
2022-10-28T17:17:28.513Z,4.47
2022-10-28T17:19:00.958Z,4.10
2022-10-28T17:20:34.211Z,4.30
2022-10-28T17:23:41.093Z,3.90
2022-10-28T17:25:13.384Z,4.10
2022-10-28T17:26:47.718Z,4.40
2022-10-28T17:28:19.985Z,4.32
2022-10-28T17:29:52.347Z,4.00
2022-10-28T17:31:25.845Z,4.07
2022-10-28T17:34:30.364Z,4.22
2022-10-28T17:36:06.705Z,4.50
2022-10-28T17:37:39.066Z,4.43
2022-10-28T17:39:17.010Z,4.10
2022-10-28T17:40:55.572Z,4.28
2022-10-28T17:42:28.110Z,4.65
2022-10-28T17:44:02.605Z,4.60
2022-10-28T17:45:34.979Z,4.22
2022-10-28T17:47:07.366Z,4.53
2022-10-28T17:48:40.670Z,4.38
2022-10-28T17:50:13.124Z,4.53
2022-10-28T17:51:48.281Z,5.22
2022-10-28T17:53:20.801Z,4.88
2022-10-28T17:54:53.433Z,4.97
2022-10-28T17:56:25.727Z,5.47
2022-10-28T17:57:58.371Z,5.10
2022-10-28T17:59:30.801Z,5.20
2022-10-28T18:01:06.611Z,4.70
2022-10-28T18:02:40.693Z,4.65
2022-10-28T18:04:13.352Z,5.25
2022-10-28T18:05:45.525Z,4.30
2022-10-28T18:07:17.923Z,4.50
2022-10-28T18:10:22.825Z,4.27
2022-10-28T18:11:55.183Z,4.18
2022-10-28T18:13:28.969Z,4.43
2022-10-28T18:15:01.360Z,4.03
2022-10-28T18:16:34.709Z,4.13
2022-10-28T18:18:07.083Z,4.25
2022-10-28T18:19:39.413Z,4.68
2022-10-28T18:21:12.887Z,3.92
2022-10-28T18:24:19.521Z,3.85
2022-10-28T18:26:00.758Z,4.57
2022-10-28T18:29:10.902Z,4.28
2022-10-28T18:30:43.305Z,4.05
2022-10-28T18:32:16.777Z,4.80
2022-10-28T18:35:22.058Z,4.10
2022-10-28T18:36:57.309Z,3.97
2022-10-28T18:38:29.607Z,4.03
2022-10-28T18:40:01.841Z,4.70
2022-10-28T18:41:38.527Z,4.38
2022-10-28T18:43:11.109Z,4.88
2022-10-28T18:44:43.589Z,4.38
2022-10-28T18:46:15.815Z,4.28
2022-10-28T18:47:48.040Z,4.32
2022-10-28T18:49:20.390Z,3.92
2022-10-28T18:51:00.533Z,4.35
2022-10-28T18:52:33.014Z,4.00
2022-10-28T18:54:05.679Z,4.03
2022-10-28T18:55:37.949Z,4.32
2022-10-28T18:57:10.266Z,3.78
2022-10-28T18:58:43.112Z,4.32
2022-10-28T19:00:18.313Z,4.03
2022-10-28T19:01:51.064Z,7.05
2022-10-28T19:03:24.007Z,4.83
2022-10-28T19:04:56.475Z,5.90
2022-10-28T19:06:32.976Z,3.80
2022-10-28T19:08:05.561Z,5.32
2022-10-28T19:09:37.815Z,5.15
2022-10-28T19:11:14.000Z,5.57
2022-10-28T19:12:52.005Z,4.60
2022-10-28T19:14:25.413Z,4.63
2022-10-28T19:15:57.960Z,5.97
2022-10-28T19:17:30.352Z,5.87
2022-10-28T19:19:05.014Z,5.22
2022-10-28T19:20:37.493Z,5.95
2022-10-28T19:22:09.792Z,7.03
2022-10-28T19:23:43.379Z,6.70
2022-10-28T19:25:16.136Z,5.55
2022-10-28T19:26:48.351Z,4.90
2022-10-28T19:28:20.707Z,4.70
2022-10-28T19:29:53.067Z,5.97
2022-10-28T19:31:26.672Z,14.52
2022-10-28T19:32:59.088Z,4.60
2022-10-28T19:34:33.367Z,3.88
2022-10-28T19:36:14.733Z,4.25
2022-10-28T19:37:47.035Z,4.25
2022-10-28T19:39:19.468Z,3.88
2022-10-28T19:42:31.994Z,4.13
2022-10-28T19:44:04.960Z,4.47
2022-10-28T19:45:37.415Z,4.10
2022-10-28T19:47:09.743Z,4.50
2022-10-28T19:48:44.275Z,4.10
2022-10-28T19:50:16.953Z,6.75
2022-10-28T19:51:49.260Z,12.90
2022-10-28T19:53:21.655Z,12.18
2022-10-28T19:54:57.029Z,8.43
2022-10-28T19:56:30.787Z,5.70
2022-10-28T19:58:03.188Z,5.88
2022-10-28T19:59:35.612Z,4.80
2022-10-28T20:01:09.789Z,4.95
2022-10-28T20:02:42.402Z,6.03
2022-10-28T20:04:14.755Z,5.20
2022-10-28T20:05:46.982Z,4.97
2022-10-28T20:07:20.475Z,5.97
2022-10-28T20:12:04.176Z,5.20
2022-10-28T20:13:36.849Z,12.38
2022-10-28T20:15:09.459Z,5.75
2022-10-28T20:16:44.082Z,5.17
2022-10-28T20:18:16.436Z,5.95
2022-10-28T20:19:48.896Z,15.25
2022-10-28T20:21:22.239Z,18.88
2022-10-28T20:22:54.613Z,19.52
2022-10-28T20:24:27.306Z,6.53
2022-10-28T20:26:00.298Z,8.63
2022-10-28T20:27:32.589Z,9.23
2022-10-28T20:29:07.077Z,9.05
2022-10-28T20:30:39.147Z,6.25
2022-10-28T20:32:11.434Z,9.18
2022-10-28T20:33:45.057Z,7.13
2022-10-28T20:35:17.134Z,9.13
2022-10-28T20:36:49.638Z,10.18
2022-10-28T20:38:22.709Z,21.45
2022-10-28T20:39:58.350Z,8.45
2022-10-28T20:41:33.987Z,7.40
2022-10-28T20:43:06.225Z,9.57
2022-10-28T20:44:38.496Z,6.95
2022-10-28T20:46:17.499Z,6.20
2022-10-28T20:47:53.410Z,7.28
2022-10-28T20:49:25.455Z,15.50
2022-10-28T20:50:59.369Z,15.18
2022-10-28T20:52:31.425Z,24.73
2022-10-28T20:54:03.578Z,8.40
2022-10-28T20:55:35.607Z,9.48
2022-10-28T20:57:07.675Z,8.98
2022-10-28T20:58:39.942Z,9.20
2022-10-28T21:00:12.786Z,8.52
2022-10-28T21:01:44.857Z,7.03
2022-10-28T21:03:17.563Z,5.72
2022-10-28T21:04:49.623Z,6.00
2022-10-28T21:06:22.173Z,6.80
2022-10-28T21:07:55.172Z,6.60
2022-10-28T21:09:27.482Z,5.53
2022-10-28T21:11:03.759Z,5.63
2022-10-28T21:12:36.029Z,5.90
2022-10-28T21:14:08.243Z,5.80
2022-10-28T21:15:41.062Z,5.68
2022-10-28T21:17:13.089Z,5.95
2022-10-28T21:18:45.126Z,5.63
2022-10-28T21:20:17.407Z,5.20
2022-10-28T21:21:51.152Z,4.63
2022-10-28T21:23:23.819Z,5.10
2022-10-28T21:24:55.810Z,4.97
2022-10-28T21:26:27.931Z,4.55
2022-10-28T21:28:00.669Z,4.60
2022-10-28T21:29:32.623Z,4.10
2022-10-28T21:31:16.511Z,5.03
2022-10-28T21:34:20.623Z,4.47
2022-10-28T21:36:00.299Z,4.60
2022-10-28T21:37:33.107Z,4.13
2022-10-28T21:39:05.297Z,4.50
2022-10-28T21:40:37.555Z,4.78
2022-10-28T21:42:09.689Z,4.57
2022-10-28T21:43:43.689Z,4.30
2022-10-28T21:45:15.889Z,4.50
2022-10-28T21:46:48.803Z,4.05
2022-10-28T21:48:20.790Z,4.82
2022-10-28T21:49:52.947Z,4.10
2022-10-28T21:51:25.206Z,4.43
2022-10-28T21:52:57.143Z,4.43
2022-10-28T21:54:29.281Z,5.18
2022-10-28T21:56:06.071Z,4.25
2022-10-28T21:57:38.288Z,4.95
2022-10-28T21:59:13.224Z,4.80
2022-10-28T22:00:45.936Z,4.85
2022-10-28T22:02:18.090Z,4.40
2022-10-28T22:03:51.428Z,5.13
2022-10-28T22:05:23.467Z,5.10
2022-10-28T22:06:55.707Z,4.80
2022-10-28T22:08:28.234Z,4.38
2022-10-28T22:10:00.268Z,4.25
2022-10-28T22:11:32.390Z,4.30
2022-10-28T22:13:04.405Z,4.72
2022-10-28T22:14:36.468Z,4.18
2022-10-28T22:16:11.713Z,4.60
2022-10-28T22:17:43.760Z,4.50
2022-10-28T22:19:16.483Z,4.90
2022-10-28T22:20:48.695Z,4.20
2022-10-28T22:22:20.719Z,4.45
2022-10-28T22:23:53.471Z,4.15
2022-10-28T22:25:25.572Z,4.15
2022-10-28T22:26:57.558Z,4.45
2022-10-28T22:28:29.874Z,4.53
2022-10-28T22:30:01.968Z,4.40
2022-10-28T22:31:34.056Z,4.35
2022-10-28T22:33:06.065Z,4.35
2022-10-28T22:34:38.039Z,4.78
2022-10-28T22:36:12.793Z,4.30
2022-10-28T22:37:44.835Z,4.32
2022-10-28T22:39:16.795Z,4.57
2022-10-28T22:40:49.770Z,4.97
2022-10-28T22:42:21.754Z,4.00
2022-10-28T22:43:58.680Z,4.78
2022-10-28T22:45:30.910Z,4.43
2022-10-28T22:47:03.702Z,4.63
2022-10-28T22:48:35.716Z,5.10
2022-10-28T22:50:07.950Z,4.80
2022-10-28T22:51:39.946Z,4.72
2022-10-28T22:53:11.980Z,4.15
2022-10-28T22:54:44.115Z,4.53
2022-10-28T22:56:21.671Z,4.22
2022-10-28T22:57:54.574Z,4.30
2022-10-28T22:59:27.031Z,4.38
2022-10-28T23:01:14.067Z,4.38
2022-10-28T23:02:46.253Z,4.20
2022-10-28T23:04:18.356Z,4.55
2022-10-28T23:05:50.405Z,5.15
2022-10-28T23:07:22.391Z,4.68
2022-10-28T23:08:54.970Z,5.00
2022-10-28T23:12:00.020Z,4.30
2022-10-28T23:13:32.281Z,5.05
2022-10-28T23:15:04.594Z,4.85
2022-10-28T23:16:36.562Z,4.75
2022-10-28T23:18:08.579Z,4.80
2022-10-28T23:19:40.584Z,4.28
2022-10-28T23:21:19.487Z,4.13
2022-10-28T23:22:51.514Z,4.43
2022-10-28T23:24:23.515Z,4.30
2022-10-28T23:25:55.600Z,4.57
2022-10-28T23:27:27.589Z,4.38
2022-10-28T23:29:00.541Z,4.60
2022-10-28T23:30:32.952Z,4.05
2022-10-28T23:32:05.285Z,4.38
2022-10-28T23:33:37.325Z,3.90
2022-10-28T23:35:09.538Z,4.63
2022-10-28T23:36:41.649Z,4.53
2022-10-28T23:38:16.808Z,3.92
2022-10-28T23:39:48.799Z,4.60
2022-10-28T23:41:21.275Z,4.20
2022-10-28T23:42:53.546Z,4.13
2022-10-28T23:44:25.938Z,4.22
2022-10-28T23:45:58.459Z,4.63
2022-10-28T23:47:30.689Z,3.92
2022-10-28T23:49:02.811Z,4.60
2022-10-28T23:50:34.872Z,4.50
2022-10-28T23:52:09.640Z,4.43
2022-10-28T23:53:41.636Z,4.40
2022-10-28T23:55:13.712Z,4.43
2022-10-28T23:56:45.704Z,4.20
2022-10-28T23:58:18.828Z,4.18
2022-10-28T23:59:52.878Z,4.43
